Tiempo atmosférico en la estación meteorológica de Hijar, Teruel (300 m.)



Fecha
DESCASC
Temp. máxima en grados centígrados (hora)
DESCASC
Temp. mínima en grados centígrados (hora)
DESCASC
Temp. media en grados centígrados
DESCASC
Racha de viento máxima en m/sg (hora)
DESCASC
Velocidad máxima media en intervalos de 10 minutos(hora)
DESCASC
Precipitaciones diarias en mm
DESCASC
Precipitaciones de 00:00 a 06:00 en mm
DESCASC
Precipitaciones de 06:00 a 12:00 en mm
DESCASC
Precipitaciones de 12:00 a 18:00 en mm
DESCASC
Precipitaciones de 18:00 a 24:00 en mm
DESCASC
13-10-2019 29.3 (15:30) 14.2 (07:30) 21.7 11.67 (16:40) 8.61 (19:50) 0 0 0 0 0
12-10-2019 31.2 (15:50) 14.7 (06:50) 23 11.11 (18:30) 8.33 (18:30) 0 0 0 0 0
10-10-2019 24.7 (16:00) 15.5 (00:00) 20.1 10.56 (01:00) 6.94 (00:40) 0 0 0 0 0
09-10-2019 27.4 (15:00) 13.7 (00:00) 20.5 9.17 (23:59) 6.11 (23:59) 0 0 0 0 0
08-10-2019 29.6 (16:30) 14.9 (00:00) 22.3 9.17 (00:20) 5.83 (00:20) 0 0 0 0 0
07-10-2019 28.3 (16:40) 15.2 (00:00) 21.7 15.28 (05:50) 9.72 (05:50) 0 0 0 0 0
06-10-2019 27.1 (16:30) 14 (00:00) 20.6 11.11 (23:10) 6.67 (09:50) 0 0 0 0 0
05-10-2019 29.1 (16:40) 14.9 (07:50) 22 7.22 (05:20) 5.28 (05:20) 0 0 0 0 0
04-10-2019 30.4 (14:30) 16.5 (00:00) 23.4 11.39 (00:50) 7.78 (00:40) 0 0 0 0 0
03-10-2019 29.1 (16:40) 13.8 (00:00) 21.5 11.11 (00:40) 6.94 (01:40) 0 0 0 0 0
02-10-2019 24.7 (16:10) 15.7 (00:00) 20.2 14.72 (16:50) 6.94 (23:50) 0 0 0 0 0
01-10-2019 32 (15:50) 13.3 (00:00) 22.7 10.83 (18:30) 5.83 (23:50) 0 0 0 0 0
30-09-2019 31 (16:30) 15.1 (00:00) 23.1 5.56 (16:10) 3.61 (00:30) 0 0 0 0 0
29-09-2019 32.3 (17:30) 14 (00:00) 23.1 4.72 (15:20) 3.33 (23:40) 0 0 0 0 0
28-09-2019 29.5 (17:10) 15.2 (00:00) 22.3 7.78 (19:40) 5.83 (19:30) 0 0 0 0 0
27-09-2019 32 (16:40) 14.9 (00:00) 23.4 4.72 (12:20) 2.78 (02:20) 0 0 0 0 0
26-09-2019 30.8 (15:30) 15.5 (00:00) 23.1 6.39 (15:40) 4.17 (06:30) 0 0 0 0 0
25-09-2019 27.6 (16:50) 17.4 (00:00) 22.5 10.28 (10:00) 6.11 (08:50) 0 0 0 0 0
24-09-2019 34.9 (16:20) 15.7 (00:00) 25.3 9.72 (16:50) 4.17 (17:20) 0 0 0 0 0
23-09-2019 28.7 (16:20) 13.3 (00:00) 21 6.39 (16:40) 3.33 (02:40) 0 0 0 0 0
22-09-2019 30.2 (15:00) 18.3 (00:00) 24.3 10 (16:20) 5.56 (17:00) 0 0 0 0 0
21-09-2019 29.5 (15:00) 17.2 (00:00) 23.4 8.89 (01:40) 6.67 (01:40) 1.8 1 0.8 0 0
20-09-2019 30.8 (14:50) 15.3 (00:00) 23 12.78 (18:50) 9.44 (19:00) 0 0 0 0 0
19-09-2019 30.9 (16:00) 16.8 (00:00) 23.8 8.89 (18:20) 5.83 (20:20) 0 0 0 0 0
18-09-2019 32 (16:20) 17.1 (00:00) 24.6 -- (--) -- (--) 0.2 0 0 0.2 0
17-09-2019 33.4 (16:40) 17.6 (00:00) 25.5 16.67 (23:10) 10.83 (23:10) 0 0 0 0 0
16-09-2019 31.4 (16:20) 19.1 (00:00) 25.3 8.89 (16:40) 5 (16:10) 0 0 0 0 0

Gráficas

Temp. máximas Temp. mínimas Temp. medias Precipitaciones Rachas de viento máximas Velocidades máximas media en intervalos de 10 minutos

Datos horarios

Fecha y hora oficial Temperatura (ºC) Velocidad del viento (km/h) Dirección del viento Racha (km/h) Dirección de racha Precipitación (mm) Presión (hPa) Tendencia (hPa) Humedad (%)
2019-10-15 23:00:00 12.2 11 Sudoeste 15 Sudoeste 0 -- -- 50
2019-10-15 22:00:00 12.8 7 Sudoeste 14 Oeste 0 -- -- 48
2019-10-15 21:00:00 14.1 4 Sur 6 Sudoeste 0 -- -- 45
2019-10-15 20:00:00 16.3 2 Este 9 Noroeste 0 -- -- 41
2019-10-15 19:00:00 19.2 5 Noroeste 17 Noroeste 0 -- -- 35
2019-10-15 18:00:00 20.6 5 Noroeste 22 Oeste 0 -- -- 32
2019-10-15 17:00:00 21.2 8 Noroeste 31 Oeste 0 -- -- 32
2019-10-15 16:00:00 22.5 10 Noroeste 40 Oeste 0 -- -- 31
2019-10-15 15:00:00 21 13 Oeste 35 Oeste 0 -- -- 35
2019-10-15 14:00:00 21.1 14 Oeste 30 Oeste 0 -- -- 33
2019-10-15 13:00:00 19.9 12 Oeste 37 Oeste 0 -- -- 34
2019-10-15 12:00:00 17.7 21 Oeste 36 Noroeste 0 -- -- 39
2019-10-15 11:00:00 15.9 19 Oeste 44 Oeste 0 -- -- 46
2019-10-15 10:00:00 13.5 24 Oeste 42 Oeste 0 -- -- 52
2019-10-15 09:00:00 11.7 21 Oeste 33 Sudoeste 0 -- -- 58
2019-10-15 08:00:00 10.8 21 Oeste 47 Oeste 0 -- -- 61
2019-10-15 07:00:00 11.4 29 Oeste 55 Oeste 0 -- -- 59
2019-10-15 06:00:00 11.4 24 Oeste 42 Oeste 0 -- -- 59
2019-10-15 05:00:00 11.5 19 Oeste 41 Oeste 0 -- -- 59
2019-10-15 04:00:00 12.3 8 Oeste 44 Oeste 0 -- -- 63
2019-10-15 03:00:00 12.9 19 Oeste 32 Oeste 0 -- -- 62
2019-10-15 02:00:00 14.4 19 Oeste 38 Oeste 0 -- -- 57
2019-10-15 01:00:00 15.5 23 Oeste 55 Sudoeste 0 -- -- 58
2019-10-15 00:00:00 15.4 22 Sudoeste 57 Oeste 0 -- -- 58
2019-10-14 23:00:00 14.5 24 Oeste 53 Oeste 0 -- -- 61
2019-10-14 22:00:00 16.8 13 Sudoeste 20 Sudoeste 0 -- -- 72
2019-10-14 21:00:00 17.8 17 Sudoeste 24 Sudoeste 0 -- -- 70
2019-10-14 20:00:00 18.4 10 Sudoeste 18 Sudoeste 0 -- -- 72
2019-10-14 19:00:00 18 5 Sudoeste 51 Oeste 1.8 -- -- 85
2019-10-14 18:00:00 23.1 27 Oeste 52 Oeste 0 -- -- 54
2019-10-14 17:00:00 24.5 25 Sudeste 40 Sudeste 0 -- -- 45
2019-10-14 16:00:00 23.7 20 Sudeste 32 Sudeste 0 -- -- 45
2019-10-14 15:00:00 21.8 10 Sudeste 53 Sudoeste 0 -- -- 52
2019-10-14 14:00:00 21.8 42 Sur 66 Sudoeste 0 -- -- 51
2019-10-14 13:00:00 23.2 22 Sudoeste 41 Sudoeste 0 -- -- 45
2019-10-14 12:00:00 20.2 3 Oeste 10 Oeste 0 -- -- 68
2019-10-14 11:00:00 20.6 10 Sur 26 Sudeste 0 -- -- 65
2019-10-14 10:00:00 16.8 10 Este 20 Este 0 -- -- 81
2019-10-14 09:00:00 14.2 14 Sudoeste 29 Oeste 0 -- -- 91
2019-10-14 08:00:00 13.6 6 Sudoeste 10 Sudoeste 0 -- -- 91
2019-10-14 07:00:00 15.3 0 Calma 12 Sudeste 0 -- -- 85
2019-10-14 06:00:00 15.6 9 Sudeste 12 Sudeste 0 -- -- 85
2019-10-14 05:00:00 14.7 2 Sudeste 11 Sudoeste 0 -- -- 91
2019-10-14 04:00:00 14.8 7 Sudoeste 11 Sudoeste 0 -- -- 88
2019-10-14 03:00:00 16.9 6 Este 13 Este 0 -- -- 84
2019-10-14 02:00:00 16.7 7 Este 10 Nordeste 0 -- -- 85
2019-10-14 01:00:00 16.9 3 Sur 5 Noroeste 0 -- -- 81
2019-10-14 00:00:00 18.2 0 Calma 8 Sudoeste 0 -- -- 78
2019-10-13 23:00:00 19.7 3 Sudeste 12 Nordeste 0 -- -- 72
2019-10-13 22:00:00 21.5 13 Este 26 Sudeste 0 -- -- 67
2019-10-13 21:00:00 23.1 20 Sudeste 34 Este 0 -- -- 63
2019-10-13 20:00:00 25 27 Este 39 Este 0 -- -- 56
2019-10-13 19:00:00 26.4 17 Este 38 Nordeste 0 -- -- 52
2019-10-13 18:00:00 26.3 22 Nordeste 41 Nordeste 0 -- -- 56
2019-10-13 17:00:00 28.1 23 Este 42 Nordeste 0 -- -- 49
2019-10-13 16:00:00 28.6 24 Este 34 Nordeste 0 -- -- 46
2019-10-13 15:00:00 28.9 16 Nordeste 31 Nordeste 0 -- -- 43
2019-10-13 14:00:00 28 16 Nordeste 27 Nordeste 0 -- -- 44
2019-10-13 13:00:00 26.8 10 Nordeste 21 Este 0 -- -- 51
2019-10-13 12:00:00 24.2 4 Nordeste 9 Noroeste 0 -- -- 58
2019-10-13 11:00:00 21.1 3 Norte 7 Norte 0 -- -- 71
2019-10-13 10:00:00 18 3 Sudoeste 10 Oeste 0 -- -- 81
2019-10-13 09:00:00 14.6 4 Sudoeste 10 Sudoeste 0 -- -- 91
2019-10-13 08:00:00 14.2 4 Sur 7 Sur 0 -- -- 94
2019-10-13 07:00:00 14.7 3 Sur 12 Sudoeste 0 -- -- 93
2019-10-13 06:00:00 15 2 Oeste 7 Noroeste 0 -- -- 89
2019-10-13 05:00:00 16.4 2 Sudoeste 8 Sudeste 0 -- -- 87
2019-10-13 04:00:00 16.9 3 Sur 10 Sudoeste 0 -- -- 87
2019-10-13 03:00:00 17.1 9 Sudoeste 13 Sudoeste 0 -- -- 86
2019-10-13 02:00:00 17.5 3 Sudoeste 24 Oeste 0 -- -- 80
2019-10-13 01:00:00 18.3 8 Sudoeste 12 Oeste 0 -- -- 77
2019-10-13 00:00:00 19.4 9 Este 20 Este 0 -- -- 73
2019-10-12 23:00:00 20.9 13 Este 25 Nordeste 0 -- -- 69
2019-10-12 22:00:00 22.5 13 Este 29 Este 0 -- -- 64
2019-10-12 21:00:00 23.3 15 Este 35 Este 0 -- -- 59
2019-10-12 20:00:00 24.3 27 Sudeste 39 Este 0 -- -- 57
2019-10-12 19:00:00 26.1 19 Este 40 Este 0 -- -- 50
2019-10-12 18:00:00 28.1 26 Este 39 Este 0 -- -- 44
2019-10-12 17:00:00 30.1 19 Sudeste 31 Este 0 -- -- 38
2019-10-12 16:00:00 31 11 Nordeste 26 Nordeste 0 -- -- 39
2019-10-12 15:00:00 30 9 Nordeste 20 Nordeste 0 -- -- 38
2019-10-12 14:00:00 28 6 Norte 12 Este 0 -- -- 46
2019-10-12 13:00:00 24.5 4 Sudeste 11 Nordeste 0 -- -- 55
2019-10-12 12:00:00 20.9 3 Nordeste 8 Nordeste 0 -- -- 73
2019-10-12 11:00:00 18.9 2 Noroeste 11 Oeste 0 -- -- 81
2019-10-12 10:00:00 17.3 6 Sudoeste 9 Oeste 0 -- -- 87
2019-10-12 09:00:00 15.4 4 Sudoeste 9 Sudoeste 0 -- -- 94
2019-10-12 08:00:00 14.8 6 Oeste 10 Oeste 0 -- -- 93
2019-10-12 07:00:00 14.8 7 Sudoeste 12 Sudoeste 0 -- -- 94
2019-10-12 06:00:00 15.2 6 Sudoeste 10 Sudoeste 0 -- -- 94
2019-10-12 05:00:00 15.3 4 Oeste 12 Oeste 0 -- -- 92
2019-10-12 04:00:00 16.1 3 Sudoeste 15 Oeste 0 -- -- 91
2019-10-12 03:00:00 15.9 9 Sudoeste 13 Oeste 0 -- -- 90
2019-10-12 02:00:00 16.5 5 Oeste 10 Sudoeste 0 -- -- 86
2019-10-12 01:00:00 17.1 3 Sudoeste 9 Oeste 0 -- -- 83
2019-10-12 00:00:00 17.8 5 Sudoeste 10 Sudoeste 0 -- -- 82
2019-10-11 23:00:00 19.2 3 Sudoeste 6 Nordeste 0 -- -- 80
2019-10-11 22:00:00 20.8 5 Nordeste 11 Nordeste 0 -- -- 75
2019-10-11 21:00:00 22.3 8 Nordeste 23 Este 0 -- -- 70
2019-10-11 20:00:00 24.1 17 Este 26 Este 0 -- -- 62
2019-10-11 19:00:00 26.1 11 Nordeste 19 Nordeste 0 -- -- 54
2019-10-11 18:00:00 27 5 Nordeste 16 Este 0 -- -- 50
2019-10-11 17:00:00 26.8 7 Nordeste 19 Este 0 -- -- 47
2019-10-11 16:00:00 26.5 9 Nordeste 19 Este 0 -- -- 47
2019-10-11 15:00:00 25 8 Este 19 Este 0 -- -- 51
2019-10-11 14:00:00 23.2 5 Nordeste 17 Nordeste 0 -- -- 55
2019-10-11 13:00:00 21.9 4 Nordeste 12 Este 0 -- -- 60
2019-10-11 12:00:00 19.4 4 Norte 10 Nordeste 0 -- -- 70
2019-10-11 11:00:00 15.5 3 Este 9 Sudoeste 0 -- -- 87
2019-10-11 10:00:00 14.1 6 Sudoeste 8 Sudoeste 0 -- -- 92
2019-10-11 09:00:00 12.9 6 Sudoeste 9 Sudoeste 0 -- -- 95
2019-10-11 08:00:00 12.3 6 Sudoeste 13 Sudoeste 0 -- -- 93
2019-10-11 07:00:00 11.6 6 Sudoeste 10 Sudoeste 0 -- -- 78
2019-10-11 06:00:00 11.6 4 Sudoeste 8 Sudoeste 0 -- -- 75
2019-10-11 05:00:00 11.7 4 Sudoeste 10 Sudoeste 0 -- -- 72
2019-10-11 04:00:00 12.5 6 Sudoeste 8 Sudoeste 0 -- -- 68
2019-10-11 03:00:00 13.3 3 Sudoeste 5 Sudoeste 0 -- -- 66
2019-10-11 02:00:00 13.9 5 Sudoeste 8 Sudoeste 0 -- -- 64
2019-10-11 01:00:00 14.7 6 Sudoeste 8 Sudoeste 0 -- -- 61
2019-10-11 00:00:00 15.8 4 Sudoeste 6 Oeste 0 -- -- 57
2019-10-10 23:00:00 16.6 3 Sudoeste 9 Sudoeste 0 -- -- 55
2019-10-10 22:00:00 17.6 2 Oeste 6 Sudeste 0 -- -- 52
2019-10-10 21:00:00 19.3 5 Sudeste 9 Sudeste 0 -- -- 47
2019-10-10 20:00:00 20.5 6 Este 9 Este 0 -- -- 45
2019-10-10 19:00:00 22.1 6 Nordeste 15 Nordeste 0 -- -- 43
2019-10-10 18:00:00 23.6 5 Norte 15 Nordeste 0 -- -- 40
2019-10-10 17:00:00 23.7 6 Nordeste 17 Nordeste 0 -- -- 39
2019-10-10 16:00:00 24.7 4 Norte 15 Este 0 -- -- 38
2019-10-10 15:00:00 24.2 7 Nordeste 15 Este 0 -- -- 39
2019-10-10 14:00:00 23.6 5 Noroeste 12 Noroeste 0 -- -- 39
2019-10-10 13:00:00 22.5 4 Norte 15 Norte 0 -- -- 41
2019-10-10 12:00:00 21.4 4 Noroeste 15 Noroeste 0 -- -- 42
2019-10-10 11:00:00 18.6 4 Noroeste 13 Noroeste 0 -- -- 49
2019-10-10 10:00:00 17.3 4 Noroeste 13 Oeste 0 -- -- 52
2019-10-10 09:00:00 15.8 4 Oeste 14 Oeste 0 -- -- 54
2019-10-10 08:00:00 15.6 8 Oeste 15 Oeste 0 -- -- 55
2019-10-10 07:00:00 15.8 7 Oeste 17 Oeste 0 -- -- 54
2019-10-10 06:00:00 16 10 Oeste 26 Oeste 0 -- -- 54
2019-10-10 05:00:00 16.1 15 Oeste 26 Oeste 0 -- -- 54
2019-10-10 04:00:00 16 18 Oeste 28 Oeste 0 -- -- 55
2019-10-10 03:00:00 15.8 18 Oeste 27 Oeste 0 -- -- 56
2019-10-10 02:00:00 15.7 11 Sudoeste 36 Oeste 0 -- -- 55
2019-10-10 01:00:00 16 23 Oeste 38 Oeste 0 -- -- 54
2019-10-10 00:00:00 16.2 22 Oeste 33 Oeste 0 -- -- 55
2019-10-09 23:00:00 17 19 Oeste 32 Oeste 0 -- -- 53
2019-10-09 22:00:00 18 12 Oeste 25 Oeste 0 -- -- 51
2019-10-09 21:00:00 19 10 Noroeste 24 Noroeste 0 -- -- 50
2019-10-09 20:00:00 20.4 5 Noroeste 22 Norte 0 -- -- 48
2019-10-09 19:00:00 22.7 7 Noroeste 23 Noroeste 0 -- -- 45
2019-10-09 18:00:00 24.8 8 Noroeste 31 Oeste 0 -- -- 42
2019-10-09 17:00:00 25.9 8 Noroeste 27 Norte 0 -- -- 42
2019-10-09 16:00:00 27 9 Noroeste 31 Norte 0 -- -- 42
2019-10-09 15:00:00 27.4 9 Noroeste 28 Norte 0 -- -- 41
2019-10-09 14:00:00 26.4 9 Noroeste 28 Norte 0 -- -- 44
2019-10-09 13:00:00 25.4 11 Noroeste 28 Norte 0 -- -- 47
2019-10-09 12:00:00 24 8 Noroeste 27 Norte 0 -- -- 51
2019-10-09 11:00:00 22.2 9 Oeste 22 Oeste 0 -- -- 56
2019-10-09 10:00:00 18.6 10 Sudoeste 14 Sudoeste 0 -- -- 66
2019-10-09 09:00:00 14.8 5 Sudoeste 9 Sudoeste 0 -- -- 70
2019-10-09 08:00:00 13.7 4 Sudoeste 9 Sudoeste 0 -- -- 72
2019-10-09 07:00:00 14 6 Sudoeste 11 Sudoeste 0 -- -- 71
2019-10-09 06:00:00 14.6 4 Sudoeste 9 Sudoeste 0 -- -- 71
2019-10-09 05:00:00 15.2 6 Sudoeste 9 Sudoeste 0 -- -- 68
2019-10-09 04:00:00 16 5 Sudoeste 8 Oeste 0 -- -- 64
2019-10-09 03:00:00 16.1 5 Sudoeste 13 Sudoeste 0 -- -- 65
2019-10-09 02:00:00 17.5 5 Sudoeste 9 Sudoeste 0 -- -- 62
2019-10-09 01:00:00 18.1 2 Sudoeste 12 Sudoeste 0 -- -- 54
2019-10-09 00:00:00 18.9 2 Norte 6 Oeste 0 -- -- 50
2019-10-08 23:00:00 20.3 2 Noroeste 10 Sudoeste 0 -- -- 46
2019-10-08 22:00:00 21.5 7 Sudoeste 13 Sudoeste 0 -- -- 44
2019-10-08 21:00:00 23.2 6 Sudoeste 10 Sudoeste 0 -- -- 40
2019-10-08 20:00:00 25.4 6 Este 11 Este 0 -- -- 36
2019-10-08 19:00:00 27.3 6 Este 15 Nordeste 0 -- -- 33
2019-10-08 18:00:00 29.1 5 Nordeste 16 Nordeste 0 -- -- 32
2019-10-08 17:00:00 29.6 6 Norte 16 Nordeste 0 -- -- 30
2019-10-08 16:00:00 29.5 5 Nordeste 18 Nordeste 0 -- -- 26
2019-10-08 15:00:00 28.4 5 Nordeste 17 Nordeste 0 -- -- 22
2019-10-08 14:00:00 27.9 7 Nordeste 18 Nordeste 0 -- -- 21
2019-10-08 13:00:00 25.8 4 Norte 14 Sudeste 0 -- -- 23
2019-10-08 12:00:00 24 4 Nordeste 11 Nordeste 0 -- -- 25
2019-10-08 11:00:00 21.6 6 Nordeste 13 Nordeste 0 -- -- 30
2019-10-08 10:00:00 19.2 2 Nordeste 7 Nordeste 0 -- -- 33
2019-10-08 09:00:00 16.8 0 Calma 9 Sudoeste 0 -- -- 36
2019-10-08 08:00:00 15.1 4 Sudoeste 7 Oeste 0 -- -- 37
2019-10-08 07:00:00 16.5 0 Calma 10 Oeste 0 -- -- 35
2019-10-08 06:00:00 16.9 10 Oeste 14 Oeste 0 -- -- 33
2019-10-08 05:00:00 18.2 7 Oeste 17 Oeste 0 -- -- 29
2019-10-08 04:00:00 18.6 13 Oeste 18 Oeste 0 -- -- 27
2019-10-08 03:00:00 19.2 11 Oeste 21 Oeste 0 -- -- 27
2019-10-08 02:00:00 20.2 12 Oeste 30 Oeste 0 -- -- 24
2019-10-08 01:00:00 20.3 16 Oeste 33 Oeste 0 -- -- 26
2019-10-08 00:00:00 20.6 18 Oeste 27 Oeste 0 -- -- 30
2019-10-07 23:00:00 21.3 15 Sudoeste 34 Noroeste 0 -- -- 31
2019-10-07 22:00:00 21.6 18 Oeste 26 Oeste 0 -- -- 35
2019-10-07 21:00:00 22.7 7 Noroeste 27 Noroeste 0 -- -- 36
2019-10-07 20:00:00 23.5 7 Oeste 19 Noroeste 0 -- -- 36
2019-10-07 19:00:00 25.3 8 Noroeste 31 Norte 0 -- -- 34
2019-10-07 18:00:00 27.3 10 Noroeste 38 Norte 0 -- -- 31
2019-10-07 17:00:00 28.1 13 Noroeste 38 Noroeste 0 -- -- 29
2019-10-07 16:00:00 27.1 12 Noroeste 40 Norte 0 -- -- 28
2019-10-07 15:00:00 26.2 12 Noroeste 37 Noroeste 0 -- -- 28
2019-10-07 14:00:00 25.2 11 Noroeste 48 Norte 0 -- -- 29
2019-10-07 13:00:00 24.4 12 Noroeste 41 Norte 0 -- -- 30
2019-10-07 12:00:00 22.3 13 Noroeste 43 Noroeste 0 -- -- 33
2019-10-07 11:00:00 21.4 12 Noroeste 38 Noroeste 0 -- -- 34
2019-10-07 10:00:00 19.1 9 Noroeste 32 Noroeste 0 -- -- 42
2019-10-07 09:00:00 16.8 9 Noroeste 44 Oeste 0 -- -- 51
2019-10-07 08:00:00 15.6 24 Oeste 54 Oeste 0 -- -- 58
2019-10-07 07:00:00 15.2 31 Oeste 53 Oeste 0 -- -- 61
2019-10-07 06:00:00 15.3 31 Oeste 55 Oeste 0 -- -- 61
2019-10-07 05:00:00 15.2 28 Oeste 45 Oeste 0 -- -- 62
2019-10-07 04:00:00 15.7 26 Oeste 48 Oeste 0 -- -- 59
2019-10-07 03:00:00 15.9 19 Oeste 37 Oeste 0 -- -- 61
2019-10-07 02:00:00 16.3 23 Oeste 40 Oeste 0 -- -- 61
2019-10-07 01:00:00 17 19 Noroeste 40 Oeste 0 -- -- 60
2019-10-07 00:00:00 17.2 21 Oeste 40 Oeste 0 -- -- 61
2019-10-06 23:00:00 17.9 22 Oeste 36 Oeste 0 -- -- 60
2019-10-06 22:00:00 19 15 Noroeste 34 Noroeste 0 -- -- 57
2019-10-06 21:00:00 19.9 12 Noroeste 35 Noroeste 0 -- -- 53
2019-10-06 20:00:00 21 9 Noroeste 33 Noroeste 0 -- -- 53
2019-10-06 19:00:00 22.8 12 Noroeste 34 Norte 0 -- -- 50
2019-10-06 18:00:00 25.3 8 Noroeste 26 Noroeste 0 -- -- 44
2019-10-06 17:00:00 26.6 9 Noroeste 31 Norte 0 -- -- 40
2019-10-06 16:00:00 26.4 10 Noroeste 31 Oeste 0 -- -- 40
2019-10-06 15:00:00 25.1 13 Noroeste 28 Oeste 0 -- -- 42
2019-10-06 14:00:00 25.2 10 Noroeste 30 Oeste 0 -- -- 40
2019-10-06 13:00:00 23.9 9 Oeste 22 Oeste 0 -- -- 42
2019-10-06 12:00:00 22.1 8 Noroeste 30 Oeste 0 -- -- 48
2019-10-06 11:00:00 20.6 15 Oeste 31 Oeste 0 -- -- 52
2019-10-06 10:00:00 17.8 21 Oeste 39 Oeste 0 -- -- 64
2019-10-06 09:00:00 15.3 18 Oeste 28 Oeste 0 -- -- 74
2019-10-06 08:00:00 14.1 13 Oeste 22 Oeste 0 -- -- 76
2019-10-06 07:00:00 14.3 8 Oeste 18 Oeste 0 -- -- 74
2019-10-06 06:00:00 14.3 6 Sudoeste 12 Sudoeste 0 -- -- 67
2019-10-06 05:00:00 15.4 8 Sudoeste 17 Sudoeste 0 -- -- 64
2019-10-06 04:00:00 15.4 13 Sudoeste 15 Sudoeste 0 -- -- 64
2019-10-06 03:00:00 16 4 Sudoeste 7 Oeste 0 -- -- 60
2019-10-06 02:00:00 17.5 3 Nordeste 18 Oeste 0 -- -- 55
2019-10-06 01:00:00 17.6 13 Sudoeste 16 Sudoeste 0 -- -- 55
2019-10-06 00:00:00 18.2 14 Sudoeste 17 Sudoeste 0 -- -- 54
2019-10-05 23:00:00 19.3 13 Sudoeste 17 Sudoeste 0 -- -- 50
2019-10-05 22:00:00 19.7 11 Sudoeste 16 Sudoeste 0 -- -- 50
2019-10-05 21:00:00 21.3 7 Sudoeste 10 Sudoeste 0 -- -- 43
2019-10-05 20:00:00 24 0 Calma 6 Norte 0 -- -- 37
2019-10-05 19:00:00 26.3 4 Nordeste 12 Norte 0 -- -- 35
2019-10-05 18:00:00 28.5 4 Norte 14 Nordeste 0 -- -- 33
2019-10-05 17:00:00 28.8 6 Norte 20 Noroeste 0 -- -- 36
2019-10-05 16:00:00 29 6 Norte 18 Noroeste 0 -- -- 36
2019-10-05 15:00:00 27.8 5 Norte 19 Noroeste 0 -- -- 40
2019-10-05 14:00:00 26.8 8 Oeste 18 Oeste 0 -- -- 42
2019-10-05 13:00:00 24.9 7 Noroeste 18 Norte 0 -- -- 47
2019-10-05 12:00:00 23.2 5 Noroeste 19 Oeste 0 -- -- 52
2019-10-05 11:00:00 21.4 6 Noroeste 25 Oeste 0 -- -- 57
2019-10-05 10:00:00 18.9 11 Oeste 21 Oeste 0 -- -- 64
2019-10-05 09:00:00 16.4 10 Oeste 15 Oeste 0 -- -- 72
2019-10-05 08:00:00 15 12 Sudoeste 26 Oeste 0 -- -- 77
2019-10-05 07:00:00 15.3 18 Oeste 26 Oeste 0 -- -- 75
2019-10-05 06:00:00 15.9 15 Sudoeste 26 Oeste 0 -- -- 73
2019-10-05 05:00:00 16.4 14 Oeste 24 Sudoeste 0 -- -- 71
2019-10-05 04:00:00 16.8 14 Sudoeste 22 Sudoeste 0 -- -- 69
2019-10-05 03:00:00 17.2 13 Sudoeste 26 Oeste 0 -- -- 67
2019-10-05 02:00:00 18.3 11 Oeste 23 Oeste 0 -- -- 64
2019-10-05 01:00:00 19.2 15 Oeste 23 Oeste 0 -- -- 61
2019-10-05 00:00:00 20 18 Oeste 28 Oeste 0 -- -- 59
2019-10-04 23:00:00 21.1 13 Noroeste 28 Oeste 0 -- -- 55
2019-10-04 22:00:00 21.6 9 Oeste 17 Oeste 0 -- -- 52
2019-10-04 21:00:00 22.4 5 Oeste 11 Oeste 0 -- -- 49
2019-10-04 20:00:00 24.9 2 Oeste 5 Noroeste 0 -- -- 44
2019-10-04 19:00:00 27.3 5 Norte 14 Norte 0 -- -- 40
2019-10-04 18:00:00 29.1 7 Noroeste 21 Noroeste 0 -- -- 37
2019-10-04 17:00:00 29.9 6 Noroeste 23 Norte 0 -- -- 35
2019-10-04 16:00:00 30.2 8 Noroeste 27 Noroeste 0 -- -- 36
2019-10-04 15:00:00 30.4 10 Norte 28 Norte 0 -- -- 36
2019-10-04 14:00:00 29.2 8 Noroeste 27 Norte 0 -- -- 36
2019-10-04 13:00:00 28.3 8 Noroeste 24 Norte 0 -- -- 39
2019-10-04 12:00:00 26.6 6 Noroeste 16 Noroeste 0 -- -- 43
2019-10-04 11:00:00 24 4 Noroeste 12 Noroeste 0 -- -- 47
2019-10-04 10:00:00 20.3 3 Nordeste 14 Sudoeste 0 -- -- 49
2019-10-04 09:00:00 18.3 10 Sudoeste 16 Sudoeste 0 -- -- 54
2019-10-04 08:00:00 16.5 12 Sudoeste 16 Oeste 0 -- -- 60
2019-10-04 07:00:00 17.4 13 Sudoeste 18 Sudoeste 0 -- -- 58
2019-10-04 06:00:00 18.7 14 Oeste 26 Oeste 0 -- -- 56
2019-10-04 05:00:00 18.3 14 Sudoeste 26 Oeste 0 -- -- 54
2019-10-04 04:00:00 18.5 17 Oeste 29 Oeste 0 -- -- 52
2019-10-04 03:00:00 19 20 Oeste 40 Oeste 0 -- -- 46
2019-10-04 02:00:00 18.6 21 Oeste 36 Oeste 0 -- -- 42
2019-10-04 01:00:00 18.8 24 Oeste 41 Oeste 0 -- -- 41
2019-10-04 00:00:00 19.6 23 Oeste 39 Sudoeste 0 -- -- 42
2019-10-03 23:00:00 20.1 18 Oeste 35 Oeste 0 -- -- 42
2019-10-03 22:00:00 21.2 19 Oeste 28 Oeste 0 -- -- 40
2019-10-03 21:00:00 21.8 14 Oeste 28 Oeste 0 -- -- 38
2019-10-03 20:00:00 23.1 13 Oeste 32 Noroeste 0 -- -- 36
2019-10-03 19:00:00 25.7 7 Noroeste 30 Noroeste 0 -- -- 30
2019-10-03 18:00:00 28.3 10 Norte 25 Noroeste 0 -- -- 24
2019-10-03 17:00:00 28.7 8 Noroeste 31 Norte 0 -- -- 20
2019-10-03 16:00:00 28.5 8 Noroeste 23 Norte 0 -- -- 24
2019-10-03 15:00:00 27.3 7 Noroeste 20 Norte 0 -- -- 28
2019-10-03 14:00:00 25.1 6 Noroeste 18 Oeste 0 -- -- 34
2019-10-03 13:00:00 23.2 9 Oeste 26 Oeste 0 -- -- 39
2019-10-03 12:00:00 21.7 9 Noroeste 31 Norte 0 -- -- 44
2019-10-03 11:00:00 18.8 13 Oeste 34 Oeste 0 -- -- 52
2019-10-03 10:00:00 16.1 17 Oeste 30 Noroeste 0 -- -- 59
2019-10-03 09:00:00 14.8 13 Oeste 24 Oeste 0 -- -- 64
2019-10-03 08:00:00 13.8 14 Oeste 22 Oeste 0 -- -- 66
2019-10-03 07:00:00 14.1 15 Oeste 24 Oeste 0 -- -- 65
2019-10-03 06:00:00 14 16 Oeste 28 Oeste 0 -- -- 66
2019-10-03 05:00:00 14.4 17 Oeste 30 Oeste 0 -- -- 65
2019-10-03 04:00:00 14.9 15 Oeste 33 Oeste 0 -- -- 64
2019-10-03 03:00:00 15.4 20 Oeste 39 Oeste 0 -- -- 64
2019-10-03 02:00:00 15.5 22 Oeste 40 Noroeste 0 -- -- 63
2019-10-03 01:00:00 15.6 16 Oeste 40 Oeste 0 -- -- 67
2019-10-03 00:00:00 16.1 22 Oeste 42 Oeste 0 -- -- 65
2019-10-02 23:00:00 16.8 19 Oeste 40 Oeste 0 -- -- 63
2019-10-02 22:00:00 17.5 15 Noroeste 32 Oeste 0 -- -- 60
2019-10-02 21:00:00 18.4 15 Noroeste 39 Oeste 0 -- -- 56
2019-10-02 20:00:00 19.5 14 Noroeste 44 Noroeste 0 -- -- 51
2019-10-02 19:00:00 20.8 15 Noroeste 46 Oeste 0 -- -- 48
2019-10-02 18:00:00 23.2 17 Noroeste 51 Noroeste 0 -- -- 43
2019-10-02 17:00:00 24.2 19 Noroeste 53 Noroeste 0 -- -- 41
2019-10-02 16:00:00 24.5 16 Noroeste 49 Oeste 0 -- -- 39
2019-10-02 15:00:00 24.2 18 Noroeste 48 Norte 0 -- -- 41
2019-10-02 14:00:00 23.6 16 Noroeste 46 Noroeste 0 -- -- 42
2019-10-02 13:00:00 23.3 17 Noroeste 43 Oeste 0 -- -- 42
2019-10-02 12:00:00 22.4 14 Noroeste 40 Oeste 0 -- -- 43
2019-10-02 11:00:00 20.8 14 Noroeste 40 Noroeste 0 -- -- 48
2019-10-02 10:00:00 19.3 15 Oeste 34 Oeste 0 -- -- 58
2019-10-02 09:00:00 16.6 14 Oeste 29 Oeste 0 -- -- 67
2019-10-02 08:00:00 15.7 13 Oeste 27 Oeste 0 -- -- 69
2019-10-02 07:00:00 16.2 16 Oeste 26 Oeste 0 -- -- 72
2019-10-02 06:00:00 16.6 15 Oeste 34 Oeste 0 -- -- 71
2019-10-02 05:00:00 16.9 18 Oeste 35 Oeste 0 -- -- 70
2019-10-02 04:00:00 17.1 19 Oeste 33 Oeste 0 -- -- 69
2019-10-02 03:00:00 17.7 20 Oeste 32 Oeste 0 -- -- 67
2019-10-02 02:00:00 18.3 15 Oeste 31 Oeste 0 -- -- 65
2019-10-02 01:00:00 19.6 19 Oeste 33 Oeste 0 -- -- 60
2019-10-02 00:00:00 20.8 20 Oeste 33 Oeste 0 -- -- 56
2019-10-01 23:00:00 21.9 14 Oeste 30 Noroeste 0 -- -- 53
2019-10-01 22:00:00 23 12 Oeste 26 Noroeste 0 -- -- 51
2019-10-01 21:00:00 24.2 11 Noroeste 28 Noroeste 0 -- -- 49
2019-10-01 20:00:00 25.7 8 Noroeste 31 Norte 0 -- -- 44
2019-10-01 19:00:00 28.6 11 Noroeste 39 Noroeste 0 -- -- 37
2019-10-01 18:00:00 30.7 10 Noroeste 32 Norte 0 -- -- 32
2019-10-01 17:00:00 30.6 9 Norte 25 Noroeste 0 -- -- 32
2019-10-01 16:00:00 31.7 9 Noroeste 21 Norte 0 -- -- 33
2019-10-01 15:00:00 31.2 7 Norte 18 Noroeste 0 -- -- 33
2019-10-01 14:00:00 28.4 5 Norte 15 Nordeste 0 -- -- 40
2019-10-01 13:00:00 25.4 3 Nordeste 9 Norte 0 -- -- 52
2019-10-01 12:00:00 22.2 3 Norte 9 Nordeste 0 -- -- 70
2019-10-01 11:00:00 19.7 3 Norte 6 Oeste 0 -- -- 76
2019-10-01 10:00:00 16 2 Norte 9 Oeste 0 -- -- 91
2019-10-01 09:00:00 14.2 4 Oeste 9 Oeste 0 -- -- 91
2019-10-01 08:00:00 13.4 5 Sudoeste 8 Sudoeste 0 -- -- 76
2019-10-01 07:00:00 13.8 6 Sudoeste 10 Sudoeste 0 -- -- 81
2019-10-01 06:00:00 15.2 4 Sudoeste 9 Sudoeste 0 -- -- 84
2019-10-01 05:00:00 15.6 4 Sudoeste 8 Sudoeste 0 -- -- 82
2019-10-01 04:00:00 16.4 6 Sudoeste 8 Sudoeste 0 -- -- 77
2019-10-01 03:00:00 17.4 2 Oeste 8 Oeste 0 -- -- 72
2019-10-01 02:00:00 18.5 0 Calma 5 Noroeste 0 -- -- 65
2019-10-01 01:00:00 19.5 3 Oeste 9 Oeste 0 -- -- 55
2019-10-01 00:00:00 21 5 Oeste 9 Sudoeste 0 -- -- 48
2019-09-30 23:00:00 21.6 4 Sudoeste 6 Sudoeste 0 -- -- 45
2019-09-30 22:00:00 23.7 0 Calma 9 Este 0 -- -- 45
2019-09-30 21:00:00 25.7 8 Este 10 Este 0 -- -- 47
2019-09-30 20:00:00 27.7 4 Nordeste 12 Este 0 -- -- 32
2019-09-30 19:00:00 29.3 8 Este 19 Este 0 -- -- 26
2019-09-30 18:00:00 30.5 8 Este 17 Este 0 -- -- 27
2019-09-30 17:00:00 31 9 Nordeste 20 Este 0 -- -- 28
2019-09-30 16:00:00 30.5 6 Nordeste 19 Nordeste 0 -- -- 30
2019-09-30 15:00:00 29.7 8 Nordeste 18 Nordeste 0 -- -- 30
2019-09-30 14:00:00 29 8 Nordeste 16 Nordeste 0 -- -- 31
2019-09-30 13:00:00 26.8 6 Nordeste 16 Nordeste 0 -- -- 37
2019-09-30 12:00:00 25.4 4 Nordeste 12 Nordeste 0 -- -- 38
2019-09-30 11:00:00 23.1 6 Nordeste 11 Este 0 -- -- 40
2019-09-30 10:00:00 20.2 3 Norte 6 Nordeste 0 -- -- 45
2019-09-30 09:00:00 17.2 4 Sudoeste 10 Sudoeste 0 -- -- 47
2019-09-30 08:00:00 15.1 6 Sudoeste 10 Sudoeste 0 -- -- 53
2019-09-30 07:00:00 15.4 7 Sudoeste 11 Sudoeste 0 -- -- 52
2019-09-30 06:00:00 16 5 Sudoeste 7 Sudoeste 0 -- -- 53
2019-09-30 05:00:00 17.2 3 Sudoeste 6 Sudoeste 0 -- -- 49
2019-09-30 04:00:00 18.2 4 Sudoeste 8 Sudoeste 0 -- -- 48
2019-09-30 03:00:00 18.1 3 Oeste 10 Sudoeste 0 -- -- 50
2019-09-30 02:00:00 18.9 2 Noroeste 9 Sudeste 0 -- -- 49
2019-09-30 01:00:00 20.1 4 Sudoeste 18 Sudoeste 0 -- -- 45
2019-09-30 00:00:00 21 12 Sudoeste 15 Sudoeste 0 -- -- 44
2019-09-29 23:00:00 22.1 9 Sudoeste 13 Sudoeste 0 -- -- 41
2019-09-29 22:00:00 23 8 Sudoeste 14 Sudoeste 0 -- -- 40
2019-09-29 21:00:00 25.2 9 Sudoeste 10 Sudoeste 0 -- -- 35
2019-09-29 20:00:00 28 4 Sudeste 11 Nordeste 0 -- -- 31
2019-09-29 19:00:00 30.1 8 Nordeste 15 Este 0 -- -- 30
2019-09-29 18:00:00 31.9 5 Nordeste 13 Norte 0 -- -- 29
2019-09-29 17:00:00 32 6 Nordeste 12 Nordeste 0 -- -- 30
2019-09-29 16:00:00 31.1 4 Norte 17 Nordeste 0 -- -- 32
2019-09-29 15:00:00 28.6 6 Nordeste 15 Nordeste 0 -- -- 41
2019-09-29 14:00:00 26.4 7 Nordeste 16 Nordeste 0 -- -- 52
2019-09-29 13:00:00 23.3 6 Nordeste 14 Nordeste 0 -- -- 69
2019-09-29 12:00:00 19.1 5 Este 8 Sudeste 0 -- -- 86
2019-09-29 11:00:00 17.5 0 Calma 6 Norte 0 -- -- 96
2019-09-29 10:00:00 16.9 0 Calma 6 Oeste 0 -- -- 97
2019-09-29 09:00:00 16 2 Sudoeste 8 Sudoeste 0 -- -- 96
2019-09-29 08:00:00 15.1 5 Oeste 9 Oeste 0 -- -- 95
2019-09-29 07:00:00 14.1 4 Sudoeste 10 Oeste 0 -- -- 92
2019-09-29 06:00:00 14.7 6 Sudoeste 9 Sudoeste 0 -- -- 92
2019-09-29 05:00:00 15 5 Sudoeste 11 Sudoeste 0 -- -- 88
2019-09-29 04:00:00 15.9 5 Sudoeste 8 Sudoeste 0 -- -- 86
2019-09-29 03:00:00 16.8 4 Sudoeste 9 Oeste 0 -- -- 84
2019-09-29 02:00:00 17.8 3 Sudoeste 11 Oeste 0 -- -- 81
2019-09-29 01:00:00 19.1 4 Sudoeste 5 Sudoeste 0 -- -- 79
2019-09-29 00:00:00 20 0 Calma 8 Oeste 0 -- -- 75
2019-09-28 23:00:00 21.3 2 Nordeste 6 Sur 0 -- -- 73
2019-09-28 22:00:00 22.6 4 Sur 14 Nordeste 0 -- -- 69
2019-09-28 21:00:00 23.8 11 Nordeste 24 Este 0 -- -- 66
2019-09-28 20:00:00 25.6 15 Nordeste 28 Este 0 -- -- 59
2019-09-28 19:00:00 27.6 12 Nordeste 23 Nordeste 0 -- -- 47
2019-09-28 18:00:00 28.6 12 Este 22 Este 0 -- -- 40
2019-09-28 17:00:00 29.2 6 Norte 21 Nordeste 0 -- -- 37
2019-09-28 16:00:00 28.2 8 Este 18 Este 0 -- -- 38
2019-09-28 15:00:00 27.5 7 Este 19 Este 0 -- -- 40
2019-09-28 14:00:00 26.2 6 Nordeste 17 Nordeste 0 -- -- 44
2019-09-28 13:00:00 25.4 4 Norte 17 Este 0 -- -- 47
2019-09-28 12:00:00 24.8 4 Norte 12 Norte 0 -- -- 49
2019-09-28 11:00:00 23.2 5 Norte 13 Norte 0 -- -- 53
2019-09-28 10:00:00 20.6 4 Oeste 12 Sudoeste 0 -- -- 57
2019-09-28 09:00:00 16.5 9 Sudoeste 13 Sudoeste 0 -- -- 63
2019-09-28 08:00:00 15.2 13 Sudoeste 16 Oeste 0 -- -- 65
2019-09-28 07:00:00 16.1 6 Sudoeste 9 Oeste 0 -- -- 66
2019-09-28 06:00:00 16.6 5 Oeste 16 Sudoeste 0 -- -- 57
2019-09-28 05:00:00 16.9 13 Sudoeste 17 Sudoeste 0 -- -- 54
2019-09-28 04:00:00 18.5 11 Sudoeste 17 Sudoeste 0 -- -- 60
2019-09-28 03:00:00 18 5 Sudoeste 12 Sudoeste 0 -- -- 48
2019-09-28 02:00:00 18.9 9 Sudoeste 18 Sudoeste 0 -- -- 45
2019-09-28 01:00:00 19 10 Sudoeste 13 Sudoeste 0 -- -- 44
2019-09-28 00:00:00 20.5 10 Sudoeste 15 Oeste 0 -- -- 41
2019-09-27 23:00:00 22.2 10 Sudoeste 15 Oeste 0 -- -- 37
2019-09-27 22:00:00 22.4 10 Sudoeste 13 Sudoeste 0 -- -- 37
2019-09-27 21:00:00 25.3 4 Sudoeste 7 Norte 0 -- -- 31
2019-09-27 20:00:00 27.3 2 Norte 9 Sudeste 0 -- -- 30
2019-09-27 19:00:00 29.7 6 Nordeste 13 Nordeste 0 -- -- 27
2019-09-27 18:00:00 31.2 7 Este 17 Nordeste 0 -- -- 25
2019-09-27 17:00:00 31.4 4 Este 14 Este 0 -- -- 27
2019-09-27 16:00:00 30.9 8 Nordeste 16 Este 0 -- -- 30
2019-09-27 15:00:00 30.2 5 Norte 17 Noroeste 0 -- -- 33
2019-09-27 14:00:00 29.4 5 Norte 14 Norte 0 -- -- 36
2019-09-27 13:00:00 27.2 4 Norte 17 Noroeste 0 -- -- 42
2019-09-27 12:00:00 26.2 6 Norte 16 Noroeste 0 -- -- 48
2019-09-27 11:00:00 23.2 3 Norte 8 Nordeste 0 -- -- 58
2019-09-27 10:00:00 20.9 3 Nordeste 5 Sudoeste 0 -- -- 64
2019-09-27 09:00:00 17.1 4 Sudoeste 8 Sudoeste 0 -- -- 61
2019-09-27 08:00:00 14.9 5 Sudoeste 10 Sudoeste 0 -- -- 68
2019-09-27 07:00:00 15.3 6 Sudoeste 10 Sudoeste 0 -- -- 65
2019-09-27 06:00:00 16.5 4 Sudoeste 9 Sudoeste 0 -- -- 62
2019-09-27 05:00:00 17.1 4 Sudoeste 8 Sudoeste 0 -- -- 58
2019-09-27 04:00:00 17.5 8 Oeste 11 Oeste 0 -- -- 57
2019-09-27 03:00:00 18 7 Sudoeste 14 Sudoeste 0 -- -- 56
2019-09-27 02:00:00 18.5 9 Sudoeste 12 Sudoeste 0 -- -- 54
2019-09-27 01:00:00 20.3 3 Sudoeste 6 Oeste 0 -- -- 47
2019-09-27 00:00:00 21.2 2 Oeste 8 Noroeste 0 -- -- 45
2019-09-26 23:00:00 22.3 7 Sudoeste 14 Sudoeste 0 -- -- 46
2019-09-26 22:00:00 24.1 5 Sudoeste 12 Sudeste 0 -- -- 40
2019-09-26 21:00:00 25.3 9 Sudeste 11 Sudeste 0 -- -- 36
2019-09-26 20:00:00 27.3 5 Este 12 Nordeste 0 -- -- 33
2019-09-26 19:00:00 28.6 6 Nordeste 18 Este 0 -- -- 32
2019-09-26 18:00:00 29.5 8 Nordeste 20 Nordeste 0 -- -- 31
2019-09-26 17:00:00 29.3 14 Este 22 Nordeste 0 -- -- 31
2019-09-26 16:00:00 30.1 9 Nordeste 23 Este 0 -- -- 31
2019-09-26 15:00:00 30.4 8 Norte 20 Este 0 -- -- 31
2019-09-26 14:00:00 29.2 5 Nordeste 17 Nordeste 0 -- -- 33
2019-09-26 13:00:00 27.8 8 Nordeste 15 Nordeste 0 -- -- 35
2019-09-26 12:00:00 26.8 6 Nordeste 13 Nordeste 0 -- -- 37
2019-09-26 11:00:00 24.4 7 Nordeste 12 Nordeste 0 -- -- 42
2019-09-26 10:00:00 21.1 4 Nordeste 6 Nordeste 0 -- -- 48
2019-09-26 09:00:00 17.4 2 Sudoeste 4 Sudoeste 0 -- -- 57
2019-09-26 08:00:00 15.6 0 Calma 15 Sudoeste 0 -- -- 61
2019-09-26 07:00:00 16.9 13 Sudoeste 22 Sudoeste 0 -- -- 57
2019-09-26 06:00:00 16.8 14 Sudoeste 19 Sudoeste 0 -- -- 57
2019-09-26 05:00:00 16.1 12 Sudoeste 15 Sudoeste 0 -- -- 61
2019-09-26 04:00:00 16.5 10 Oeste 14 Sudoeste 0 -- -- 59
2019-09-26 03:00:00 17.3 11 Sudoeste 16 Sudoeste 0 -- -- 57
2019-09-26 02:00:00 18.6 10 Sudoeste 15 Oeste 0 -- -- 53
2019-09-26 01:00:00 18.9 10 Oeste 20 Oeste 0 -- -- 52
2019-09-26 00:00:00 18.5 8 Oeste 14 Sudoeste 0 -- -- 52
2019-09-25 23:00:00 19.4 9 Sudoeste 13 Sudoeste 0 -- -- 49
2019-09-25 22:00:00 20 8 Sudoeste 16 Oeste 0 -- -- 48
2019-09-25 21:00:00 21.2 7 Noroeste 17 Oeste 0 -- -- 44
2019-09-25 20:00:00 22.3 4 Noroeste 27 Noroeste 0 -- -- 42
2019-09-25 19:00:00 24.4 6 Norte 27 Noroeste 0 -- -- 39
2019-09-25 18:00:00 26.3 13 Noroeste 30 Noroeste 0 -- -- 36
2019-09-25 17:00:00 27.6 9 Noroeste 30 Norte 0 -- -- 33
2019-09-25 16:00:00 27.1 8 Noroeste 24 Norte 0 -- -- 36
2019-09-25 15:00:00 26.6 12 Noroeste 31 Oeste 0 -- -- 36
2019-09-25 14:00:00 25.7 8 Noroeste 32 Oeste 0 -- -- 39
2019-09-25 13:00:00 25.3 8 Noroeste 28 Noroeste 0 -- -- 39
2019-09-25 12:00:00 23.8 13 Oeste 35 Oeste 0 -- -- 44
2019-09-25 11:00:00 22.5 12 Noroeste 34 Oeste 0 -- -- 47
2019-09-25 10:00:00 20 17 Oeste 37 Oeste 0 -- -- 55
2019-09-25 09:00:00 17.8 20 Oeste 32 Oeste 0 -- -- 64
2019-09-25 08:00:00 17.5 20 Oeste 33 Oeste 0 -- -- 67
2019-09-25 07:00:00 18 18 Oeste 30 Oeste 0 -- -- 66
2019-09-25 06:00:00 19.1 13 Oeste 23 Oeste 0 -- -- 63
2019-09-25 05:00:00 20.4 7 Noroeste 21 Noroeste 0 -- -- 62
2019-09-25 04:00:00 22.2 3 Noroeste 27 Oeste 0 -- -- 58
2019-09-25 03:00:00 22.9 16 Oeste 22 Oeste 0 -- -- 56
2019-09-25 02:00:00 22.1 15 Sudoeste 20 Sudoeste 0 -- -- 58
2019-09-25 01:00:00 21.3 12 Sudoeste 21 Sudoeste 0 -- -- 58
2019-09-25 00:00:00 21.8 11 Sudoeste 15 Sudoeste 0 -- -- 56
2019-09-24 23:00:00 23.6 4 Sudoeste 10 Oeste 0 -- -- 51
2019-09-24 22:00:00 24.7 6 Oeste 12 Norte 0 -- -- 49
2019-09-24 21:00:00 25.8 3 Norte 24 Noroeste 0 -- -- 46
2019-09-24 20:00:00 28 11 Norte 26 Norte 0 -- -- 40
2019-09-24 19:00:00 30.2 9 Noroeste 33 Norte 0 -- -- 34
2019-09-24 18:00:00 32.7 10 Noroeste 34 Noroeste 0 -- -- 30
2019-09-24 17:00:00 34 11 Noroeste 35 Noroeste 0 -- -- 27
2019-09-24 16:00:00 33.8 9 Noroeste 32 Norte 0 -- -- 25
2019-09-24 15:00:00 33.5 9 Norte 26 Noroeste 0 -- -- 26
2019-09-24 14:00:00 32.1 9 Noroeste 24 Noroeste 0 -- -- 28
2019-09-24 13:00:00 30.3 13 Noroeste 32 Noroeste 0 -- -- 30
2019-09-24 12:00:00 28.8 8 Noroeste 27 Noroeste 0 -- -- 32
2019-09-24 11:00:00 26.4 5 Noroeste 11 Noroeste 0 -- -- 38
2019-09-24 10:00:00 22.3 4 Nordeste 10 Oeste 0 -- -- 45
2019-09-24 09:00:00 17.7 9 Sudoeste 18 Sudoeste 0 -- -- 56
2019-09-24 08:00:00 15.8 10 Sudoeste 14 Sudoeste 0 -- -- 62
2019-09-24 07:00:00 16.1 7 Sudoeste 12 Sudoeste 0 -- -- 60
2019-09-24 06:00:00 16.7 3 Sudoeste 9 Oeste 0 -- -- 58
2019-09-24 05:00:00 17.8 7 Sudoeste 9 Sudoeste 0 -- -- 55
2019-09-24 04:00:00 17.9 7 Oeste 12 Sudoeste 0 -- -- 54
2019-09-24 03:00:00 17.6 8 Sudoeste 14 Oeste 0 -- -- 55
2019-09-24 02:00:00 17.7 9 Sudoeste 12 Oeste 0 -- -- 53
2019-09-24 01:00:00 18.2 5 Oeste 13 Sudoeste 0 -- -- 51
2019-09-24 00:00:00 18.4 7 Sudoeste 12 Sudoeste 0 -- -- 50
2019-09-23 23:00:00 19.2 8 Sudoeste 11 Sudoeste 0 -- -- 48
2019-09-23 22:00:00 20.2 8 Sudoeste 10 Sudoeste 0 -- -- 45
2019-09-23 21:00:00 22.4 2 Sudeste 5 Sudeste 0 -- -- 39
2019-09-23 20:00:00 24.1 3 Este 12 Este 0 -- -- 37
2019-09-23 19:00:00 26 3 Norte 10 Nordeste 0 -- -- 34
2019-09-23 18:00:00 27.4 5 Norte 18 Nordeste 0 -- -- 33
2019-09-23 17:00:00 28.2 3 Norte 23 Norte 0 -- -- 31
2019-09-23 16:00:00 28.2 4 Noroeste 15 Norte 0 -- -- 28
2019-09-23 15:00:00 27.3 3 Norte 15 Norte 0 -- -- 31
2019-09-23 14:00:00 27.4 7 Nordeste 14 Este 0 -- -- 32
2019-09-23 13:00:00 26.6 6 Nordeste 17 Nordeste 0 -- -- 35
2019-09-23 12:00:00 25.1 4 Norte 11 Norte 0 -- -- 40
2019-09-23 11:00:00 22.3 2 Oeste 6 Nordeste 0 -- -- 44
2019-09-23 10:00:00 18.9 3 Nordeste 6 Nordeste 0 -- -- 56
2019-09-23 09:00:00 14.8 2 Sudoeste 13 Sudoeste 0 -- -- 68
2019-09-23 08:00:00 13.4 6 Sudoeste 10 Oeste 0 -- -- 73
2019-09-23 07:00:00 13.8 3 Sudoeste 8 Sudoeste 0 -- -- 72
2019-09-23 06:00:00 14.6 3 Sudoeste 8 Sudoeste 0 -- -- 69
2019-09-23 05:00:00 14.7 2 Nordeste 9 Sudoeste 0 -- -- 69
2019-09-23 04:00:00 15.6 7 Sudoeste 15 Sudoeste 0 -- -- 66
2019-09-23 03:00:00 16.1 10 Sudoeste 19 Sudoeste 0 -- -- 62
2019-09-23 02:00:00 17.4 8 Sudoeste 16 Sudoeste 0 -- -- 56
2019-09-23 01:00:00 18.3 10 Sudoeste 14 Sudoeste 0 -- -- 55
2019-09-23 00:00:00 18.5 9 Sudoeste 13 Sudoeste 0 -- -- 57
2019-09-22 23:00:00 18.8 8 Sudoeste 14 Oeste 0 -- -- 58
2019-09-22 22:00:00 20.3 7 Oeste 15 Oeste 0 -- -- 54
2019-09-22 21:00:00 21.4 4 Noroeste 23 Noroeste 0 -- -- 52
2019-09-22 20:00:00 23.5 9 Norte 23 Noroeste 0 -- -- 49
2019-09-22 19:00:00 25.7 7 Noroeste 30 Norte 0 -- -- 40
2019-09-22 18:00:00 25.7 9 Noroeste 23 Oeste 0 -- -- 46
2019-09-22 17:00:00 24.1 20 Oeste 36 Noroeste 0 -- -- 54
2019-09-22 16:00:00 26.6 10 Noroeste 29 Noroeste 0 -- -- 43
2019-09-22 15:00:00 30.2 6 Noroeste 30 Noroeste 0 -- -- 40
2019-09-22 14:00:00 28.9 7 Norte 32 Noroeste 0 -- -- 46
2019-09-22 13:00:00 26.6 5 Norte 12 Noroeste 0 -- -- 48
2019-09-22 12:00:00 26.8 5 Norte 14 Norte 0 -- -- 47
2019-09-22 11:00:00 26.5 4 Noroeste 19 Sudoeste 0 -- -- 48
2019-09-22 10:00:00 23.6 3 Sudoeste 10 Sur 0 -- -- 60
2019-09-22 09:00:00 20.6 7 Sur 10 Sur 0 -- -- 68
2019-09-22 08:00:00 19.2 4 Sudeste 8 Sur 0 -- -- 79
2019-09-22 07:00:00 19 3 Sudoeste 6 Oeste 0 -- -- 82
2019-09-22 06:00:00 19.4 2 Oeste 9 Sudoeste 0 -- -- 77
2019-09-22 05:00:00 19.4 4 Sudoeste 8 Sudoeste 0 -- -- 79
2019-09-22 04:00:00 20.1 0 Calma 6 Nordeste 0 -- -- 80
2019-09-22 03:00:00 21 5 Nordeste 8 Nordeste 0 -- -- 72
2019-09-22 02:00:00 21.4 0 Calma 4 Nordeste 0 -- -- 74
2019-09-22 01:00:00 22 3 Nordeste 5 Sudoeste 0 -- -- 68
2019-09-22 00:00:00 22.5 3 Sur 5 Sudoeste 0 -- -- 65
2019-09-21 23:00:00 23.1 2 Nordeste 13 Oeste 0 -- -- 63
2019-09-21 22:00:00 23.8 11 Sur 23 Sudeste 0 -- -- 60
2019-09-21 21:00:00 24.3 11 Sudeste 18 Sudeste 0 -- -- 56
2019-09-21 20:00:00 25.3 14 Sudeste 30 Sudeste 0 -- -- 53
2019-09-21 19:00:00 26.6 14 Este 20 Nordeste 0 -- -- 50
2019-09-21 18:00:00 27.5 9 Este 22 Nordeste 0 -- -- 44
2019-09-21 17:00:00 26.8 10 Nordeste 19 Nordeste 0 -- -- 45
2019-09-21 16:00:00 27.5 10 Nordeste 26 Nordeste 0 -- -- 44
2019-09-21 15:00:00 29.5 7 Nordeste 21 Nordeste 0 -- -- 39
2019-09-21 14:00:00 27.4 8 Este 18 Este 0 -- -- 44
2019-09-21 13:00:00 26.8 3 Norte 12 Nordeste 0 -- -- 47
2019-09-21 12:00:00 24.8 5 Sur 19 Sur 0 -- -- 51
2019-09-21 11:00:00 21.7 13 Sudeste 21 Sudeste 0 -- -- 71
2019-09-21 10:00:00 19.4 5 Este 15 Sur 0 -- -- 81
2019-09-21 09:00:00 17.7 3 Sur 20 Sudeste 0 -- -- 84
2019-09-21 08:00:00 17.2 10 Sudeste 20 Sudeste 0.2 -- -- 87
2019-09-21 07:00:00 17.5 15 Sudeste 25 Sudeste 0.6 -- -- 88
2019-09-21 06:00:00 18 18 Sudeste 31 Sudeste 0.2 -- -- 87
2019-09-21 05:00:00 18.8 11 Sudeste 23 Sudeste 0 -- -- 80
2019-09-21 04:00:00 18.4 13 Este 28 Sudeste 0.8 -- -- 77
2019-09-21 03:00:00 19.8 17 Sudeste 29 Este 0 -- -- 62
2019-09-21 02:00:00 19.5 21 Este 32 Este 0 -- -- 70
2019-09-21 01:00:00 20.3 21 Este 27 Este 0 -- -- 64
2019-09-21 00:00:00 21.2 17 Este 33 Este 0 -- -- 59
2019-09-20 23:00:00 22.1 25 Este 33 Sudeste 0 -- -- 59
2019-09-20 22:00:00 22.8 18 Este 28 Este 0 -- -- 61
2019-09-20 21:00:00 23.9 18 Sudeste 37 Sudeste 0 -- -- 58
2019-09-20 20:00:00 24.9 26 Sur 45 Sudeste 0 -- -- 54
2019-09-20 19:00:00 26.2 34 Sudeste 46 Sudeste 0 -- -- 50
2019-09-20 18:00:00 28.2 29 Sudeste 42 Sudeste 0 -- -- 46
2019-09-20 17:00:00 28.4 26 Sudeste 40 Sudeste 0 -- -- 44
2019-09-20 16:00:00 29.6 17 Sudeste 37 Sudeste 0 -- -- 41
2019-09-20 15:00:00 30.6 23 Este 40 Nordeste 0 -- -- 41
2019-09-20 14:00:00 29.5 17 Sudeste 36 Este 0 -- -- 42
2019-09-20 13:00:00 28.2 21 Este 35 Este 0 -- -- 48
2019-09-20 12:00:00 26.7 19 Este 31 Sudeste 0 -- -- 53
2019-09-20 11:00:00 23.6 7 Nordeste 14 Nordeste 0 -- -- 62
2019-09-20 10:00:00 20.4 2 Oeste 12 Oeste 0 -- -- 74
2019-09-20 09:00:00 17 8 Sudoeste 12 Sudoeste 0 -- -- 79
2019-09-20 08:00:00 15.4 4 Sudoeste 10 Sudoeste 0 -- -- 87
2019-09-20 07:00:00 16.2 4 Sur 8 Sudoeste 0 -- -- 89
2019-09-20 06:00:00 16.5 4 Sudoeste 11 Sudoeste 0 -- -- 88
2019-09-20 05:00:00 17.3 3 Sudoeste 9 Sudoeste 0 -- -- 85
2019-09-20 04:00:00 18.3 2 Sudoeste 9 Nordeste 0 -- -- 83
2019-09-20 03:00:00 19.2 3 Norte 16 Este 0 -- -- 78
2019-09-20 02:00:00 19.8 10 Este 16 Este 0 -- -- 73
2019-09-20 01:00:00 20.7 9 Este 18 Nordeste 0 -- -- 68
2019-09-20 00:00:00 23.5 5 Este 20 Sudoeste 0 -- -- 53
2019-09-19 23:00:00 23.2 4 Sur 13 Sudeste 0 -- -- 53
2019-09-19 22:00:00 24 8 Sudeste 14 Sudoeste 0 -- -- 52
2019-09-19 21:00:00 24.8 14 Sudoeste 28 Sudoeste 0 -- -- 49
2019-09-19 20:00:00 26.8 12 Sur 25 Sur 0 -- -- 41
2019-09-19 19:00:00 27.8 17 Sur 32 Sudeste 0 -- -- 46
2019-09-19 18:00:00 30.2 10 Nordeste 21 Este 0 -- -- 39
2019-09-19 17:00:00 29.7 6 Este 19 Este 0 -- -- 40
2019-09-19 16:00:00 30.9 5 Norte 13 Nordeste 0 -- -- 40
2019-09-19 15:00:00 29.4 6 Nordeste 17 Nordeste 0 -- -- 43
2019-09-19 14:00:00 28.1 6 Norte 16 Nordeste 0 -- -- 48
2019-09-19 13:00:00 27.4 6 Nordeste 15 Este 0 -- -- 49
2019-09-19 12:00:00 26.5 6 Norte 12 Noroeste 0 -- -- 51
2019-09-19 11:00:00 24.3 3 Norte 6 Norte 0 -- -- 56
2019-09-19 10:00:00 22 3 Nordeste 6 Norte 0 -- -- 60
2019-09-19 09:00:00 18.5 5 Sudoeste 13 Sudoeste 0 -- -- 70
2019-09-19 08:00:00 16.9 10 Sudoeste 14 Sudoeste 0 -- -- 74
2019-09-19 07:00:00 17.3 10 Sudoeste 14 Sudoeste 0 -- -- 71
2019-09-19 06:00:00 17.8 10 Sudoeste 16 Sudoeste 0 -- -- 68
2019-09-19 05:00:00 17.9 10 Sudoeste 15 Sudoeste 0 -- -- 67
2019-09-19 04:00:00 19.3 9 Sudoeste 15 Oeste 0 -- -- 65
2019-09-19 03:00:00 19.5 12 Sudoeste 19 Sudoeste 0 -- -- 64
2019-09-19 02:00:00 20.2 8 Sudoeste 12 Sudoeste 0 -- -- 61
2019-09-19 01:00:00 21.5 0 Calma 4 Sudeste 0 -- -- 60
2019-09-19 00:00:00 21.9 3 Sur 8 Noroeste 0 -- -- 56
2019-09-18 23:00:00 22.5 4 Noroeste 11 Oeste 0 -- -- 54
2019-09-18 22:00:00 23.7 5 Sur 13 Sudeste 0 -- -- 56
2019-09-18 21:00:00 24.4 10 Este 14 Este 0 -- -- 52
2019-09-18 20:00:00 25.7 2 Sur 17 Sudeste 0 -- -- 45
2019-09-18 19:00:00 27.1 11 Sudeste 24 Sudeste 0 -- -- 39
2019-09-18 18:00:00 27.4 17 Sudeste 34 Sudeste 0.2 -- -- 43
2019-09-18 17:00:00 29.2 8 Sur 16 Nordeste 0 -- -- 34
2019-09-18 16:00:00 30.8 5 Norte 17 Norte 0 -- -- 34
2019-09-18 15:00:00 -- -- -- -- -- -- -- -- --
2019-09-18 14:00:00 30.3 5 Norte 12 Norte 0 -- -- 37
2019-09-18 13:00:00 28.2 4 Noroeste 13 Noroeste 0 -- -- 42
2019-09-18 12:00:00 27.4 4 Sudoeste 11 Oeste 0 -- -- 44
2019-09-18 11:00:00 24 4 Sudoeste 20 Sudoeste 0 -- -- 49
2019-09-18 10:00:00 21.3 15 Sudoeste 23 Sudoeste 0 -- -- 53
2019-09-18 09:00:00 19 10 Sudoeste 19 Sudoeste 0 -- -- 61
2019-09-18 08:00:00 17.2 14 Sudoeste 22 Sudoeste 0 -- -- 67
2019-09-18 07:00:00 17.3 13 Sudoeste 20 Oeste 0 -- -- 67
2019-09-18 06:00:00 18.1 12 Sudoeste 16 Sudoeste 0 -- -- 64
2019-09-18 05:00:00 18.7 10 Sudoeste 13 Sudoeste 0 -- -- 61
2019-09-18 04:00:00 19.3 8 Sudoeste 12 Oeste 0 -- -- 58
2019-09-18 03:00:00 21.2 7 Sudeste 14 Este 0 -- -- 54
2019-09-18 02:00:00 22.7 6 Este 18 Este 0 -- -- 49
2019-09-18 01:00:00 23.9 7 Oeste 24 Oeste 0 -- -- 46
2019-09-18 00:00:00 24.6 22 Sudoeste 60 Sudoeste 0 -- -- 43
2019-09-17 23:00:00 25.9 38 Sudoeste 55 Sudoeste 0 -- -- 43
2019-09-17 22:00:00 25.9 8 Sudoeste 13 Sudoeste 0 -- -- 40
2019-09-17 21:00:00 27.6 9 Sudeste 10 Sudeste 0 -- -- 37